Carrollton, OH

5:39 PM EDT on May 24, 2015 (GMT -0400)
OHDOT | | Change Station
CLOSE
Current Station
Personal Weather Station
Location: Carrollton, OH
Elevation: 1119 ft
Nearby Weather Stations

Elev 1119 ft 40.59 °N, 81.08 °W | Updated 29 minutes ago

Partly Cloudy
Partly Cloudy
81 °F
Feels Like 79 °F
N
6
Wind Variable Wind from WSW
Gusts 9.0 mph

Today
High -- | Low -- °F
--% Chance of Precip.
Yesterday
High -- | Low -- °F
Precip. -- in
6:00 AM 8:42 PM
Waxing Crescent, 42% visible
Pressure 30.22 in
Visibility 10.0 miles
Clouds Clear
Heat Index 79 °F
Dew Point 38 °F
Humidity 21%
Rainfall in
Snow Depth Not available.
UV 5 out of 12
Pollen 9.50 out of 12
Air Quality Not available.
Flu Activity Local Activity
METAR KPHD 242053Z AUTO VRB04KT 10SM CLR 28/08 A3022 RMK AO2 SLP231 T02830083 56021

More Conditions Fewer Conditions

Pressure 30.22 in
Visibility 10.0 miles
Clouds Clear
Heat Index 79 °F
Dew Point 38 °F
Humidity 21%
Rainfall in
Snow Depth Not available.
UV 5 out of 12
Pollen 9.50 out of 12
Air Quality Not available.
Flu Activity Local Activity
METAR KPHD 242053Z AUTO VRB04KT 10SM CLR 28/08 A3022 RMK AO2 SLP231 T02830083 56021

More Conditions Fewer Conditions

10-Day Weather Forecast

Almanac

Astronomy

May. 24, 2015 Rise Set
Actual Time
Civil Twilight
Nautical Twilight
Astronomical Twilight
Moon
Length of Visible Light
Length of Day
Tomorrow will be .
, % of the Moon is Illuminated

Today's Extremes

State Highs State Lows

Community

WunderPhotos

Upload Photos

1,823,872 photos uploaded!

WunderBlogs® & News

Nearby

Air Quality

  Air Quality AQ Index Pollutant
Not available.

Snow Depth

Station Depth Elevation

Earthquake Activity

City Distance Mag. Time & Date
Minimum magnitude displayed is 2.5.

Coastal Water Temperatures

Place Temperature

Stations

Nearby Weather Stations

Station Location Temp. Windchill Dew Point Humidity Wind Precip. Elev Updated Type